createdAt,value
2022-11-05T00:01:32.086Z,7.25
2022-11-05T00:07:00.956Z,7.24
2022-11-05T00:12:29.454Z,7.23
2022-11-05T00:17:37.251Z,7.24
2022-11-05T00:23:01.786Z,7.25
2022-11-05T00:28:09.776Z,7.26
2022-11-05T00:33:17.475Z,7.28
2022-11-05T00:38:25.037Z,7.27
2022-11-05T00:43:51.069Z,7.29
2022-11-05T00:49:16.312Z,7.32
2022-11-05T00:54:24.003Z,7.30
2022-11-05T00:59:31.622Z,7.34
2022-11-05T01:04:39.398Z,7.35
2022-11-05T01:09:47.079Z,7.38
2022-11-05T01:14:55.092Z,7.39
2022-11-05T01:20:02.508Z,7.40
2022-11-05T01:25:12.177Z,7.42
2022-11-05T01:30:20.158Z,7.43
2022-11-05T01:35:27.474Z,7.44
2022-11-05T01:40:35.293Z,7.46
2022-11-05T01:45:43.872Z,7.47
2022-11-05T01:50:56.121Z,7.47
2022-11-05T01:56:04.427Z,7.46
2022-11-05T02:01:12.439Z,7.48
2022-11-05T02:06:21.476Z,7.45
2022-11-05T02:11:29.040Z,7.46
2022-11-05T02:16:43.574Z,7.44
2022-11-05T02:22:25.160Z,7.46
2022-11-05T02:28:06.443Z,7.43
2022-11-05T02:33:30.158Z,7.44
2022-11-05T02:38:44.948Z,7.43
2022-11-05T02:44:04.891Z,7.42
2022-11-05T02:49:29.076Z,7.41
2022-11-05T02:54:41.700Z,7.41
2022-11-05T02:59:49.317Z,7.40
2022-11-05T03:04:57.002Z,7.41
2022-11-05T03:10:41.711Z,7.41
2022-11-05T03:15:59.687Z,7.42
2022-11-05T03:21:12.846Z,7.42
2022-11-05T03:26:28.084Z,7.43
2022-11-05T03:31:37.591Z,7.42
2022-11-05T03:36:49.045Z,7.42
2022-11-05T03:41:58.817Z,7.42
2022-11-05T03:47:11.002Z,7.43
2022-11-05T03:52:21.346Z,7.43
2022-11-05T03:57:32.041Z,7.42
2022-11-05T04:02:41.215Z,7.43
2022-11-05T04:08:11.366Z,7.43
2022-11-05T04:13:28.244Z,7.44
2022-11-05T04:18:37.044Z,7.45
2022-11-05T04:24:02.633Z,7.42
2022-11-05T04:29:28.181Z,7.45
2022-11-05T04:34:36.003Z,7.45
2022-11-05T04:39:43.677Z,7.45
2022-11-05T04:44:51.028Z,7.43
2022-11-05T04:49:58.923Z,7.44
2022-11-05T04:55:07.549Z,7.46
2022-11-05T05:00:15.748Z,7.45
2022-11-05T05:05:23.559Z,7.44
2022-11-05T05:10:31.147Z,7.40
2022-11-05T05:15:39.068Z,7.38
2022-11-05T05:21:03.538Z,7.27
2022-11-05T05:26:11.302Z,7.31
2022-11-05T05:31:18.608Z,7.28
2022-11-05T05:36:26.749Z,7.24
2022-11-05T05:41:34.262Z,7.24
2022-11-05T05:46:41.576Z,7.21
2022-11-05T05:51:49.879Z,7.19
2022-11-05T05:56:58.410Z,7.15
2022-11-05T06:02:06.278Z,7.10
2022-11-05T06:07:13.662Z,7.07
2022-11-05T06:12:21.041Z,7.01
2022-11-05T06:17:28.958Z,6.96
2022-11-05T06:22:36.369Z,6.92
2022-11-05T06:27:44.040Z,6.87
2022-11-05T06:32:51.630Z,6.85
2022-11-05T06:38:03.186Z,6.81
2022-11-05T06:43:10.816Z,6.70
2022-11-05T06:48:41.166Z,6.74
2022-11-05T06:53:48.770Z,6.74
2022-11-05T06:58:56.585Z,6.86
2022-11-05T07:04:04.078Z,6.85
2022-11-05T07:09:11.326Z,6.83
2022-11-05T07:14:18.773Z,6.81
2022-11-05T07:19:26.203Z,6.77
2022-11-05T07:24:33.819Z,6.74
2022-11-05T07:29:41.306Z,6.70
2022-11-05T07:34:48.487Z,6.65
2022-11-05T07:39:55.885Z,6.63
2022-11-05T07:45:03.480Z,6.60
2022-11-05T07:50:12.135Z,6.58
2022-11-05T07:55:20.707Z,6.54
2022-11-05T08:00:29.908Z,6.52
2022-11-05T08:05:39.047Z,6.53
2022-11-05T08:10:46.588Z,6.52
2022-11-05T08:15:54.249Z,6.51
2022-11-05T08:21:03.043Z,6.51
2022-11-05T08:26:11.720Z,6.51
2022-11-05T08:31:19.586Z,6.49
2022-11-05T08:36:27.282Z,6.50
2022-11-05T08:41:34.749Z,6.51
2022-11-05T08:46:42.281Z,6.52
2022-11-05T08:51:49.909Z,6.54
2022-11-05T08:56:58.524Z,6.56
2022-11-05T09:02:06.610Z,6.53
2022-11-05T09:07:14.460Z,6.58
2022-11-05T09:12:22.354Z,6.62
2022-11-05T09:17:29.954Z,6.62
2022-11-05T09:22:42.172Z,6.65
2022-11-05T09:27:51.186Z,6.66
2022-11-05T09:32:58.730Z,6.68
2022-11-05T09:38:06.518Z,6.72
2022-11-05T09:43:20.717Z,6.75
2022-11-05T09:48:32.713Z,6.77
2022-11-05T09:53:42.839Z,6.79
2022-11-05T09:58:54.079Z,6.81
2022-11-05T10:04:11.594Z,6.81
2022-11-05T10:09:27.128Z,6.84
2022-11-05T10:14:39.961Z,6.85
2022-11-05T10:19:50.266Z,6.86
2022-11-05T10:24:58.801Z,6.87
2022-11-05T10:30:07.186Z,6.88
2022-11-05T10:35:19.115Z,6.90
2022-11-05T10:40:40.126Z,6.91
2022-11-05T10:45:57.849Z,6.93
2022-11-05T10:51:06.755Z,6.95
2022-11-05T10:56:35.074Z,6.94
2022-11-05T11:01:42.901Z,6.98
2022-11-05T11:06:55.481Z,7.00
2022-11-05T11:12:07.235Z,7.03
2022-11-05T11:17:31.091Z,7.03
2022-11-05T11:22:38.746Z,7.08
2022-11-05T11:27:46.793Z,7.11
2022-11-05T11:32:54.318Z,7.14
2022-11-05T11:38:02.580Z,7.17
2022-11-05T11:43:29.031Z,7.20
2022-11-05T11:48:38.627Z,7.21
2022-11-05T11:53:46.522Z,7.22
2022-11-05T11:58:55.548Z,7.24
2022-11-05T12:04:12.720Z,7.25
2022-11-05T12:09:30.867Z,7.27
2022-11-05T12:14:47.819Z,7.28
2022-11-05T12:20:17.116Z,7.29
2022-11-05T12:25:31.051Z,7.30
2022-11-05T12:30:50.060Z,7.32
2022-11-05T12:36:16.147Z,7.33
2022-11-05T12:41:31.059Z,7.33
2022-11-05T12:46:46.075Z,7.36
2022-11-05T12:52:09.551Z,7.37
2022-11-05T12:57:18.452Z,7.38
2022-11-05T13:02:32.123Z,7.40
2022-11-05T13:07:45.660Z,7.42
2022-11-05T13:13:01.160Z,7.43
2022-11-05T13:18:13.329Z,7.43
2022-11-05T13:23:31.480Z,7.45
2022-11-05T13:28:47.797Z,7.46
2022-11-05T13:33:56.627Z,7.46
2022-11-05T13:39:13.654Z,7.48
2022-11-05T13:44:42.723Z,7.49
2022-11-05T13:50:24.703Z,7.45
2022-11-05T13:55:58.687Z,7.47
2022-11-05T14:01:17.784Z,7.55
2022-11-05T14:06:32.268Z,7.58
2022-11-05T14:11:43.023Z,7.60
2022-11-05T14:16:56.494Z,7.60
2022-11-05T14:22:24.581Z,7.61
2022-11-05T14:27:46.215Z,7.61
2022-11-05T14:33:05.214Z,7.60
2022-11-05T14:38:23.642Z,7.63
2022-11-05T14:43:34.444Z,7.64
2022-11-05T14:48:45.167Z,7.64
2022-11-05T14:54:00.758Z,7.65
2022-11-05T14:59:41.982Z,7.66
2022-11-05T15:04:51.302Z,7.65
2022-11-05T15:10:09.897Z,7.66
2022-11-05T15:15:25.399Z,7.66
2022-11-05T15:20:40.407Z,7.65
2022-11-05T15:26:05.394Z,7.65
2022-11-05T15:31:28.674Z,7.66
2022-11-05T15:36:36.535Z,7.67
2022-11-05T15:41:44.871Z,7.67
2022-11-05T15:47:06.643Z,7.67
2022-11-05T15:52:17.613Z,7.67
2022-11-05T15:57:29.520Z,7.68
2022-11-05T16:02:40.933Z,7.68
2022-11-05T16:07:50.165Z,7.69
2022-11-05T16:12:59.041Z,7.70
2022-11-05T16:18:20.373Z,7.69
2022-11-05T16:23:42.043Z,7.70
2022-11-05T16:28:54.159Z,7.70
2022-11-05T16:34:02.439Z,7.70
2022-11-05T16:39:12.257Z,7.71
2022-11-05T16:44:20.077Z,7.70
2022-11-05T16:49:27.969Z,7.72
2022-11-05T16:54:36.361Z,7.71
2022-11-05T16:59:44.940Z,7.72
2022-11-05T17:04:52.967Z,7.72
2022-11-05T17:10:00.885Z,7.73
2022-11-05T17:15:19.246Z,7.73
2022-11-05T17:20:39.489Z,7.73
2022-11-05T17:25:50.334Z,7.73
2022-11-05T17:31:00.435Z,7.72
2022-11-05T17:36:13.680Z,7.74
2022-11-05T17:41:23.596Z,7.72
2022-11-05T17:46:31.512Z,7.72
2022-11-05T17:51:39.491Z,7.73
2022-11-05T17:56:47.331Z,7.73
2022-11-05T18:01:55.224Z,7.71
2022-11-05T18:07:03.842Z,7.73
2022-11-05T18:12:12.113Z,7.74
2022-11-05T18:17:20.361Z,7.74
2022-11-05T18:22:28.614Z,7.74
2022-11-05T18:27:36.994Z,7.73
2022-11-05T18:32:45.005Z,7.76
2022-11-05T18:37:53.038Z,7.75
2022-11-05T18:43:00.840Z,7.77
2022-11-05T18:48:09.168Z,7.77
2022-11-05T18:53:17.351Z,7.79
2022-11-05T18:58:25.363Z,7.80
2022-11-05T19:03:33.914Z,7.81
2022-11-05T19:08:42.035Z,7.82
2022-11-05T19:13:50.964Z,7.83
2022-11-05T19:19:02.358Z,7.84
2022-11-05T19:24:16.725Z,7.85
2022-11-05T19:29:25.355Z,7.87
2022-11-05T19:34:33.503Z,7.90
2022-11-05T19:39:42.166Z,7.93
2022-11-05T19:44:50.002Z,7.95
2022-11-05T19:49:58.010Z,7.97
2022-11-05T19:55:11.854Z,7.99
2022-11-05T20:00:21.243Z,8.02
2022-11-05T20:05:29.093Z,8.04
2022-11-05T20:10:40.518Z,8.03
2022-11-05T20:15:48.319Z,8.07
2022-11-05T20:21:07.667Z,8.08
2022-11-05T20:26:16.490Z,8.08
2022-11-05T20:31:25.250Z,8.13
2022-11-05T20:36:33.465Z,8.16
2022-11-05T20:41:41.299Z,8.15
2022-11-05T20:46:49.041Z,8.18
2022-11-05T20:51:56.990Z,8.19
2022-11-05T20:57:05.194Z,8.20
2022-11-05T21:02:13.967Z,8.20
2022-11-05T21:07:22.084Z,8.22
2022-11-05T21:12:29.905Z,8.22
2022-11-05T21:17:38.032Z,8.23
2022-11-05T21:22:46.228Z,8.21
2022-11-05T21:27:53.875Z,8.23
2022-11-05T21:33:02.194Z,8.21
2022-11-05T21:38:10.188Z,8.24
2022-11-05T21:43:18.926Z,8.23
2022-11-05T21:48:26.877Z,8.26
2022-11-05T21:53:48.749Z,8.27
2022-11-05T21:59:14.276Z,8.26
2022-11-05T22:04:22.597Z,8.26
2022-11-05T22:09:31.163Z,8.24
2022-11-05T22:14:39.392Z,8.24
2022-11-05T22:19:47.350Z,8.25
2022-11-05T22:24:54.997Z,8.24
2022-11-05T22:30:02.723Z,8.24
2022-11-05T22:35:11.967Z,8.23
2022-11-05T22:40:23.707Z,8.24
2022-11-05T22:45:32.228Z,8.24
2022-11-05T22:50:40.391Z,8.24
2022-11-05T22:55:48.444Z,8.25
2022-11-05T23:00:56.320Z,8.24
2022-11-05T23:06:06.309Z,8.24
2022-11-05T23:11:39.115Z,8.23
2022-11-05T23:17:04.582Z,8.21
2022-11-05T23:22:33.593Z,8.22
2022-11-05T23:27:43.152Z,8.21
2022-11-05T23:32:51.902Z,8.19
2022-11-05T23:38:17.308Z,8.18
2022-11-05T23:43:42.740Z,8.17
2022-11-05T23:48:50.870Z,8.13
2022-11-05T23:53:58.988Z,8.09
2022-11-05T23:59:06.707Z,8.04
